createdAt,value
2023-03-02T00:00:43.203Z,29.80
2023-03-02T00:01:43.193Z,29.80
2023-03-02T00:02:43.253Z,31.70
2023-03-02T00:03:43.265Z,34.80
2023-03-02T00:04:43.186Z,32.20
2023-03-02T00:05:43.185Z,32.80
2023-03-02T00:06:43.152Z,34.90
2023-03-02T00:07:43.152Z,33.50
2023-03-02T00:08:43.155Z,32.80
2023-03-02T00:09:43.158Z,32.00
2023-03-02T00:10:43.098Z,32.00
2023-03-02T00:11:43.106Z,32.70
2023-03-02T00:12:43.115Z,31.90
2023-03-02T00:13:43.101Z,30.80
2023-03-02T00:14:43.039Z,32.30
2023-03-02T00:15:43.107Z,32.40
2023-03-02T00:16:43.009Z,34.30
2023-03-02T00:17:43.009Z,29.70
2023-03-02T00:18:43.019Z,31.00
2023-03-02T00:19:43.036Z,32.20
2023-03-02T00:20:43.032Z,30.50
2023-03-02T00:21:42.982Z,34.40
2023-03-02T00:22:42.975Z,39.20
2023-03-02T00:23:42.973Z,37.60
2023-03-02T00:24:42.963Z,42.30
2023-03-02T00:25:42.942Z,41.90
2023-03-02T00:26:42.931Z,39.90
2023-03-02T00:27:42.952Z,40.00
2023-03-02T00:28:42.893Z,38.50
2023-03-02T00:29:42.901Z,34.10
2023-03-02T00:30:42.884Z,34.20
2023-03-02T00:31:42.990Z,34.90
2023-03-02T00:32:42.855Z,37.00
2023-03-02T00:33:42.830Z,36.90
2023-03-02T00:34:42.851Z,33.90
2023-03-02T00:35:42.839Z,32.30
2023-03-02T00:36:43.067Z,37.10
2023-03-02T00:37:42.824Z,32.30
2023-03-02T00:38:42.780Z,33.90
2023-03-02T00:39:42.784Z,39.80
2023-03-02T00:40:42.801Z,37.30
2023-03-02T00:41:42.795Z,37.00
2023-03-02T00:42:42.778Z,40.10
2023-03-02T00:43:42.787Z,38.40
2023-03-02T00:44:42.688Z,33.20
2023-03-02T00:45:42.704Z,34.30
2023-03-02T00:46:42.783Z,30.60
2023-03-02T00:47:42.739Z,37.30
2023-03-02T00:48:42.684Z,38.80
2023-03-02T00:49:42.655Z,33.50
2023-03-02T00:50:42.651Z,33.50
2023-03-02T00:51:42.632Z,32.10
2023-03-02T00:52:42.627Z,33.10
2023-03-02T00:53:42.650Z,33.90
2023-03-02T00:54:42.601Z,30.60
2023-03-02T00:55:42.619Z,32.20
2023-03-02T00:56:42.591Z,33.70
2023-03-02T00:57:42.577Z,33.10
2023-03-02T00:58:42.557Z,33.80
2023-03-02T00:59:42.573Z,36.10
2023-03-02T01:00:42.536Z,32.90
2023-03-02T01:01:42.582Z,31.50
2023-03-02T01:02:42.682Z,37.30
2023-03-02T01:03:42.513Z,34.40
2023-03-02T01:04:42.525Z,32.70
2023-03-02T01:05:42.498Z,36.50
2023-03-02T01:06:42.499Z,35.00
2023-03-02T01:07:42.474Z,38.80
2023-03-02T01:08:42.447Z,36.10
2023-03-02T01:09:42.458Z,35.40
2023-03-02T01:10:42.407Z,31.70
2023-03-02T01:11:42.419Z,35.40
2023-03-02T01:12:42.445Z,32.50
2023-03-02T01:13:42.383Z,32.90
2023-03-02T01:14:42.392Z,33.90
2023-03-02T01:15:42.405Z,32.80
2023-03-02T01:16:42.413Z,33.20
2023-03-02T01:17:42.332Z,32.50
2023-03-02T01:18:42.388Z,33.70
2023-03-02T01:19:42.389Z,32.70
2023-03-02T01:20:42.309Z,31.30
2023-03-02T01:21:42.336Z,32.40
2023-03-02T01:22:42.301Z,30.20
2023-03-02T01:23:42.278Z,29.80
2023-03-02T01:24:42.297Z,32.70
2023-03-02T01:25:42.293Z,31.20
2023-03-02T01:26:42.266Z,28.90
2023-03-02T01:27:42.269Z,28.10
2023-03-02T01:28:42.274Z,30.90
2023-03-02T01:29:42.217Z,29.30
2023-03-02T01:30:42.221Z,28.50
2023-03-02T01:31:42.273Z,29.40
2023-03-02T01:32:42.171Z,30.20
2023-03-02T01:33:42.223Z,32.50
2023-03-02T01:34:42.178Z,26.20
2023-03-02T01:35:42.198Z,27.50
2023-03-02T01:36:42.138Z,29.80
2023-03-02T01:37:42.150Z,29.40
2023-03-02T01:38:42.225Z,29.20
2023-03-02T01:39:42.111Z,30.60
2023-03-02T01:40:42.084Z,28.80
2023-03-02T01:41:42.096Z,29.70
2023-03-02T01:42:42.106Z,30.10
2023-03-02T01:43:42.059Z,27.30
2023-03-02T01:44:42.064Z,28.50
2023-03-02T01:45:42.094Z,27.80
2023-03-02T01:46:42.052Z,29.70
2023-03-02T01:47:42.017Z,29.30
2023-03-02T01:48:41.994Z,29.10
2023-03-02T01:49:41.981Z,29.40
2023-03-02T01:50:41.989Z,28.20
2023-03-02T01:51:42.029Z,28.30
2023-03-02T01:52:41.949Z,31.50
2023-03-02T01:53:41.952Z,30.40
2023-03-02T01:54:41.916Z,29.10
2023-03-02T01:55:41.908Z,28.00
2023-03-02T01:56:41.932Z,31.80
2023-03-02T01:57:41.933Z,28.00
2023-03-02T01:58:41.923Z,29.20
2023-03-02T01:59:41.865Z,29.10
2023-03-02T02:00:41.879Z,30.20
2023-03-02T02:01:41.878Z,28.20
2023-03-02T02:02:41.884Z,25.70
2023-03-02T02:03:41.913Z,27.90
2023-03-02T02:04:41.826Z,30.00
2023-03-02T02:05:41.840Z,29.00
2023-03-02T02:06:41.789Z,29.40
2023-03-02T02:07:41.822Z,31.30
2023-03-02T02:08:41.787Z,30.70
2023-03-02T02:09:41.748Z,29.80
2023-03-02T02:10:41.796Z,29.10
2023-03-02T02:11:41.797Z,27.50
2023-03-02T02:12:41.726Z,27.80
2023-03-02T02:13:41.742Z,28.30
2023-03-02T02:14:41.697Z,27.60
2023-03-02T02:15:41.720Z,25.70
2023-03-02T02:16:41.839Z,26.20
2023-03-02T02:17:41.671Z,24.00
2023-03-02T02:18:41.701Z,24.20
2023-03-02T02:19:41.672Z,24.70
2023-03-02T02:20:41.656Z,27.80
2023-03-02T02:21:41.682Z,24.90
2023-03-02T02:22:41.619Z,25.40
2023-03-02T02:23:41.588Z,24.70
2023-03-02T02:24:41.598Z,25.70
2023-03-02T02:25:41.589Z,24.30
2023-03-02T02:26:41.598Z,26.50
2023-03-02T02:27:41.562Z,27.40
2023-03-02T02:28:41.559Z,26.60
2023-03-02T02:29:41.553Z,25.50
2023-03-02T02:30:41.522Z,27.10
2023-03-02T02:31:41.535Z,27.90
2023-03-02T02:32:41.609Z,26.90
2023-03-02T02:33:41.514Z,26.80
2023-03-02T02:34:41.471Z,27.00
2023-03-02T02:35:41.525Z,26.30
2023-03-02T02:36:41.473Z,23.20
2023-03-02T02:37:41.441Z,26.30
2023-03-02T02:38:41.499Z,26.00
2023-03-02T02:39:41.468Z,26.20
2023-03-02T02:40:41.410Z,24.90
2023-03-02T02:41:41.404Z,26.50
2023-03-02T02:42:41.401Z,25.40
2023-03-02T02:43:41.397Z,27.40
2023-03-02T02:44:41.413Z,25.70
2023-03-02T02:45:41.378Z,24.40
2023-03-02T02:46:41.366Z,24.10
2023-03-02T02:47:41.366Z,23.80
2023-03-02T02:48:41.346Z,24.10
2023-03-02T02:49:41.312Z,22.50
2023-03-02T02:50:41.292Z,25.70
2023-03-02T02:51:41.328Z,23.70
2023-03-02T02:52:41.328Z,25.30
2023-03-02T02:53:41.266Z,22.60
2023-03-02T02:54:41.284Z,25.00
2023-03-02T02:55:41.270Z,23.00
2023-03-02T02:56:41.268Z,23.00
2023-03-02T02:57:41.233Z,24.30
2023-03-02T02:58:41.278Z,26.90
2023-03-02T02:59:41.218Z,23.20
2023-03-02T03:00:41.176Z,24.40
2023-03-02T03:01:41.251Z,22.50
2023-03-02T03:02:41.177Z,26.70
2023-03-02T03:03:41.188Z,23.40
2023-03-02T03:04:41.238Z,23.00
2023-03-02T03:05:41.158Z,23.30
2023-03-02T03:06:41.126Z,22.60
2023-03-02T03:07:41.105Z,23.40
2023-03-02T03:08:41.153Z,23.50
2023-03-02T03:09:41.192Z,23.40
2023-03-02T03:10:41.121Z,24.70
2023-03-02T03:11:41.074Z,24.90
2023-03-02T03:12:41.097Z,26.60
2023-03-02T03:13:41.054Z,24.20
2023-03-02T03:14:41.083Z,25.20
2023-03-02T03:15:41.034Z,25.90
2023-03-02T03:16:41.041Z,26.60
2023-03-02T03:17:41.041Z,25.40
2023-03-02T03:18:41.010Z,26.60
2023-03-02T03:19:41.009Z,23.50
2023-03-02T03:20:40.987Z,23.60
2023-03-02T03:21:40.936Z,26.20
2023-03-02T03:22:40.963Z,26.60
2023-03-02T03:23:40.939Z,25.60
2023-03-02T03:24:40.938Z,27.10
2023-03-02T03:25:41.837Z,25.40
2023-03-02T03:26:40.896Z,24.20
2023-03-02T03:27:40.914Z,25.80
2023-03-02T03:28:40.877Z,24.20
2023-03-02T03:29:40.885Z,25.70
2023-03-02T03:30:40.921Z,23.40
2023-03-02T03:31:40.852Z,23.00
2023-03-02T03:32:40.835Z,26.40
2023-03-02T03:33:40.844Z,26.00
2023-03-02T03:34:41.142Z,24.60
2023-03-02T03:35:40.828Z,28.00
2023-03-02T03:36:40.801Z,25.40
2023-03-02T03:37:40.798Z,26.70
2023-03-02T03:38:40.782Z,26.00
2023-03-02T03:39:40.767Z,25.20
2023-03-02T03:40:40.730Z,26.50
2023-03-02T03:41:40.753Z,26.80
2023-03-02T03:42:40.700Z,25.80
2023-03-02T03:43:40.699Z,24.90
2023-03-02T03:44:40.762Z,25.60
2023-03-02T03:45:40.680Z,25.00
2023-03-02T03:46:40.655Z,25.40
2023-03-02T03:47:40.671Z,25.20
2023-03-02T03:48:40.650Z,25.60
2023-03-02T03:49:40.643Z,23.90
2023-03-02T03:50:40.652Z,24.70
2023-03-02T03:51:40.635Z,22.40
2023-03-02T03:52:40.596Z,24.30
2023-03-02T03:53:40.602Z,22.40
2023-03-02T03:54:40.614Z,26.70
2023-03-02T03:55:40.565Z,25.60
2023-03-02T03:56:40.544Z,26.40
2023-03-02T03:57:40.588Z,23.90
2023-03-02T03:58:40.537Z,24.30
2023-03-02T03:59:40.501Z,26.90
2023-03-02T04:00:40.521Z,24.40
2023-03-02T04:01:40.531Z,25.00
2023-03-02T04:02:40.546Z,24.30
2023-03-02T04:03:40.491Z,25.60
2023-03-02T04:04:40.482Z,23.30
2023-03-02T04:05:40.462Z,28.60
2023-03-02T04:06:40.432Z,27.40
2023-03-02T04:07:40.443Z,28.90
2023-03-02T04:08:40.403Z,26.40
2023-03-02T04:09:40.428Z,26.80
2023-03-02T04:10:40.388Z,27.20
2023-03-02T04:11:40.363Z,26.00
2023-03-02T04:12:40.373Z,24.40
2023-03-02T04:13:40.379Z,24.50
2023-03-02T04:14:40.406Z,23.80
2023-03-02T04:15:40.352Z,24.40
2023-03-02T04:16:40.347Z,24.30
2023-03-02T04:17:40.318Z,25.90
2023-03-02T04:18:40.325Z,25.70
2023-03-02T04:19:40.312Z,26.60
2023-03-02T04:20:40.285Z,23.30
2023-03-02T04:21:40.295Z,24.90
2023-03-02T04:22:40.264Z,24.20
2023-03-02T04:23:40.275Z,26.90
2023-03-02T04:24:40.222Z,26.90
2023-03-02T04:25:40.224Z,29.00
2023-03-02T04:26:40.218Z,26.40
2023-03-02T04:27:40.241Z,29.50
2023-03-02T04:28:40.230Z,31.40
2023-03-02T04:29:40.176Z,29.40
2023-03-02T04:30:40.159Z,30.10
2023-03-02T04:31:40.169Z,30.30
2023-03-02T04:32:40.188Z,29.40
2023-03-02T04:33:40.131Z,29.60
2023-03-02T04:34:40.142Z,30.30
2023-03-02T04:35:40.205Z,24.40
2023-03-02T04:36:40.108Z,27.90
2023-03-02T04:37:40.128Z,25.50
2023-03-02T04:38:40.109Z,26.00
2023-03-02T04:39:40.084Z,27.40
2023-03-02T04:40:40.056Z,27.20
2023-03-02T04:41:40.052Z,28.90
2023-03-02T04:42:40.040Z,24.80
2023-03-02T04:43:40.062Z,25.70
2023-03-02T04:44:40.037Z,26.90
2023-03-02T04:45:40.031Z,23.20
2023-03-02T04:46:40.055Z,24.30
2023-03-02T04:47:40.004Z,24.50
2023-03-02T04:48:40.001Z,24.70
2023-03-02T04:49:40.017Z,27.80
2023-03-02T04:50:39.948Z,28.40
2023-03-02T04:51:39.934Z,23.80
2023-03-02T04:52:39.991Z,24.00
2023-03-02T04:53:39.925Z,27.20
2023-03-02T04:54:39.944Z,28.50
2023-03-02T04:55:39.894Z,27.20
2023-03-02T04:56:39.903Z,27.40
2023-03-02T04:57:39.929Z,26.40
2023-03-02T04:58:39.882Z,29.20
2023-03-02T04:59:39.854Z,29.40
2023-03-02T05:00:39.846Z,25.10
2023-03-02T05:01:39.842Z,26.00
2023-03-02T05:02:39.871Z,23.70
2023-03-02T05:03:39.814Z,25.30
2023-03-02T05:04:39.845Z,26.70
2023-03-02T05:05:39.802Z,25.70
2023-03-02T05:06:39.775Z,25.90
2023-03-02T05:07:39.795Z,25.50
2023-03-02T05:08:39.748Z,26.00
2023-03-02T05:09:39.725Z,26.10
2023-03-02T05:10:39.721Z,25.40
2023-03-02T05:11:39.749Z,27.90
2023-03-02T05:12:39.737Z,25.20
2023-03-02T05:13:39.702Z,27.70
2023-03-02T05:14:39.664Z,24.70
2023-03-02T05:15:39.676Z,25.90
2023-03-02T05:16:39.729Z,26.30
2023-03-02T05:17:39.680Z,28.60
2023-03-02T05:18:39.638Z,27.10
2023-03-02T05:19:39.634Z,27.00
2023-03-02T05:20:39.611Z,31.00
2023-03-02T05:21:39.618Z,29.00
2023-03-02T05:22:39.617Z,26.00
2023-03-02T05:23:39.573Z,24.70
2023-03-02T05:24:39.562Z,26.60
2023-03-02T05:25:39.558Z,28.50
2023-03-02T05:26:39.568Z,25.50
2023-03-02T05:27:39.558Z,28.50
2023-03-02T05:28:39.527Z,28.20
2023-03-02T05:29:39.529Z,28.20
2023-03-02T05:30:39.514Z,28.10
2023-03-02T05:31:39.616Z,27.60
2023-03-02T05:32:39.546Z,28.60
2023-03-02T05:33:39.490Z,28.00
2023-03-02T05:34:39.447Z,26.70
2023-03-02T05:35:39.520Z,26.40
2023-03-02T05:36:39.456Z,25.60
2023-03-02T05:37:39.416Z,26.60
2023-03-02T05:38:39.443Z,27.20
2023-03-02T05:39:39.409Z,28.20
2023-03-02T05:40:39.412Z,25.70
2023-03-02T05:41:39.423Z,27.00
2023-03-02T05:42:39.550Z,30.60
2023-03-02T05:43:39.367Z,27.10
2023-03-02T05:44:39.355Z,29.00
2023-03-02T05:45:39.325Z,26.90
2023-03-02T05:46:39.344Z,30.20
2023-03-02T05:47:39.345Z,32.30
2023-03-02T05:48:39.331Z,30.90
2023-03-02T05:49:39.291Z,31.40
2023-03-02T05:50:39.280Z,29.00
2023-03-02T05:51:39.289Z,28.40
2023-03-02T05:52:39.288Z,31.50
2023-03-02T05:53:39.259Z,30.40
2023-03-02T05:54:39.241Z,30.90
2023-03-02T05:55:39.244Z,27.40
2023-03-02T05:56:39.211Z,30.20
2023-03-02T05:57:42.272Z,30.60
2023-03-02T05:58:39.190Z,29.20
2023-03-02T05:59:39.169Z,30.30
2023-03-02T06:00:39.157Z,30.10
2023-03-02T06:01:39.220Z,30.70
2023-03-02T06:02:39.350Z,30.30
2023-03-02T06:03:39.142Z,29.50
2023-03-02T06:04:39.117Z,29.60
2023-03-02T06:05:39.132Z,30.90
2023-03-02T06:06:39.694Z,31.60
2023-03-02T06:07:39.122Z,27.90
2023-03-02T06:08:39.077Z,29.80
2023-03-02T06:09:39.070Z,30.40
2023-03-02T06:10:39.056Z,28.50
2023-03-02T06:11:39.059Z,28.50
2023-03-02T06:12:39.016Z,30.30
2023-03-02T06:13:39.016Z,27.80
2023-03-02T06:14:39.030Z,31.90
2023-03-02T06:15:39.003Z,31.00
2023-03-02T06:16:39.077Z,32.20
2023-03-02T06:17:38.990Z,33.40
2023-03-02T06:18:41.348Z,31.30
2023-03-02T06:19:38.987Z,30.90
2023-03-02T06:20:38.929Z,31.40
2023-03-02T06:21:38.981Z,32.50
2023-03-02T06:22:38.944Z,33.50
2023-03-02T06:23:38.910Z,31.80
2023-03-02T06:24:38.886Z,32.00
2023-03-02T06:25:38.902Z,32.90
2023-03-02T06:26:38.869Z,31.90
2023-03-02T06:27:38.866Z,32.00
2023-03-02T06:28:51.572Z,31.50
2023-03-02T06:29:39.833Z,32.20
2023-03-02T06:30:38.821Z,31.70
2023-03-02T06:31:38.884Z,33.20
2023-03-02T06:32:38.865Z,33.00
2023-03-02T06:33:38.821Z,32.30
2023-03-02T06:34:38.804Z,31.80
2023-03-02T06:35:38.885Z,34.50
2023-03-02T06:36:38.872Z,36.00
2023-03-02T06:37:38.753Z,31.80
2023-03-02T06:38:38.794Z,32.60
2023-03-02T06:39:38.723Z,32.80
2023-03-02T06:40:38.704Z,41.90
2023-03-02T06:41:38.720Z,39.00
2023-03-02T06:42:38.692Z,38.80
2023-03-02T06:43:38.722Z,38.10
2023-03-02T06:44:38.707Z,35.60
2023-03-02T06:45:38.716Z,36.20
2023-03-02T06:46:38.647Z,36.30
2023-03-02T06:47:38.645Z,37.30
2023-03-02T06:48:38.640Z,37.40
2023-03-02T06:49:38.630Z,40.60
2023-03-02T06:50:38.640Z,39.50
2023-03-02T06:51:38.615Z,38.40
2023-03-02T06:52:38.609Z,43.50
2023-03-02T06:53:38.567Z,41.30
2023-03-02T06:54:38.570Z,36.60
2023-03-02T06:55:38.582Z,37.10
2023-03-02T06:56:40.921Z,38.30
2023-03-02T06:57:38.581Z,38.20
2023-03-02T06:58:38.536Z,39.30
2023-03-02T06:59:38.517Z,34.70
2023-03-02T07:00:38.523Z,36.00
2023-03-02T07:01:38.625Z,38.60
2023-03-02T07:02:38.495Z,36.10
2023-03-02T07:03:38.501Z,38.10
2023-03-02T07:04:38.495Z,36.70
2023-03-02T07:05:38.444Z,40.60
2023-03-02T07:06:38.433Z,38.00
2023-03-02T07:07:38.454Z,38.50
2023-03-02T07:08:38.405Z,41.20
2023-03-02T07:09:38.411Z,37.80
2023-03-02T07:10:38.392Z,42.00
2023-03-02T07:11:38.332Z,44.40
2023-03-02T07:12:38.359Z,41.90
2023-03-02T07:13:38.372Z,41.90
2023-03-02T07:14:38.328Z,35.50
2023-03-02T07:15:38.328Z,38.20
2023-03-02T07:16:38.290Z,32.70
2023-03-02T07:17:38.288Z,33.10
2023-03-02T07:18:38.314Z,41.10
2023-03-02T07:19:40.459Z,36.00
2023-03-02T07:20:38.278Z,39.10
2023-03-02T07:21:38.267Z,37.80
2023-03-02T07:22:38.237Z,32.50
2023-03-02T07:23:38.218Z,31.70
2023-03-02T07:24:38.224Z,30.80
2023-03-02T07:25:38.203Z,32.80
2023-03-02T07:26:40.247Z,32.10
2023-03-02T07:27:38.208Z,32.40
2023-03-02T07:28:38.166Z,34.40
2023-03-02T07:29:38.157Z,32.40
2023-03-02T07:30:38.240Z,29.00
2023-03-02T07:31:38.141Z,31.30
2023-03-02T07:32:38.207Z,27.40
2023-03-02T07:33:38.091Z,28.20
2023-03-02T07:34:38.083Z,29.20
2023-03-02T07:35:39.440Z,30.00
2023-03-02T07:36:38.066Z,28.10
2023-03-02T07:37:38.130Z,26.40
2023-03-02T07:38:38.047Z,29.80
2023-03-02T07:39:38.088Z,32.80
2023-03-02T07:40:38.016Z,28.60
2023-03-02T07:41:38.063Z,43.30
2023-03-02T07:42:38.072Z,27.40
2023-03-02T07:43:38.029Z,29.20
2023-03-02T07:44:38.010Z,25.40
2023-03-02T07:45:38.074Z,31.60
2023-03-02T07:46:38.034Z,29.90
2023-03-02T07:47:38.011Z,33.10
2023-03-02T07:48:37.957Z,30.20
2023-03-02T07:49:37.960Z,32.90
2023-03-02T07:50:37.909Z,32.40
2023-03-02T07:51:37.930Z,31.90
2023-03-02T07:52:37.902Z,30.50
2023-03-02T07:53:37.912Z,33.40
2023-03-02T07:54:37.962Z,31.70
2023-03-02T07:55:37.887Z,32.70
2023-03-02T07:56:37.885Z,29.90
2023-03-02T07:57:40.906Z,31.80
2023-03-02T07:58:37.873Z,29.70
2023-03-02T07:59:37.905Z,30.90
2023-03-02T08:00:37.832Z,30.90
2023-03-02T08:01:38.180Z,27.30
2023-03-02T08:02:37.959Z,28.40
2023-03-02T08:03:37.805Z,30.10
2023-03-02T08:04:37.833Z,28.80
2023-03-02T08:05:37.762Z,28.70
2023-03-02T08:06:37.750Z,29.10
2023-03-02T08:07:37.741Z,26.80
2023-03-02T08:08:40.754Z,29.40
2023-03-02T08:09:37.758Z,25.80
2023-03-02T08:10:37.683Z,27.40
2023-03-02T08:11:37.674Z,26.30
2023-03-02T08:12:37.674Z,27.90
2023-03-02T08:13:37.938Z,29.50
2023-03-02T08:14:37.704Z,27.00
2023-03-02T08:15:37.642Z,29.00
2023-03-02T08:16:37.707Z,30.00
2023-03-02T08:17:37.629Z,28.80
2023-03-02T08:18:37.613Z,27.80
2023-03-02T08:19:37.649Z,29.80
2023-03-02T08:20:37.674Z,30.50
2023-03-02T08:21:37.566Z,28.80
2023-03-02T08:22:37.605Z,23.80
2023-03-02T08:23:37.597Z,25.90
2023-03-02T08:24:37.576Z,27.90
2023-03-02T08:25:37.578Z,28.50
2023-03-02T08:26:37.548Z,25.90
2023-03-02T08:27:37.532Z,25.00
2023-03-02T08:28:37.541Z,27.30
2023-03-02T08:29:37.491Z,25.90
2023-03-02T08:30:37.587Z,24.30
2023-03-02T08:31:37.588Z,27.80
2023-03-02T08:32:37.481Z,27.30
2023-03-02T08:33:37.469Z,25.30
2023-03-02T08:34:37.430Z,26.70
2023-03-02T08:35:37.534Z,27.80
2023-03-02T08:36:37.401Z,27.70
2023-03-02T08:37:37.390Z,26.60
2023-03-02T08:38:37.454Z,26.80
2023-03-02T08:39:37.401Z,27.40
2023-03-02T08:40:37.387Z,28.30
2023-03-02T08:41:37.352Z,28.90
2023-03-02T08:42:37.393Z,25.80
2023-03-02T08:43:37.399Z,26.20
2023-03-02T08:44:37.350Z,26.80
2023-03-02T08:45:37.401Z,28.30
2023-03-02T08:46:37.339Z,28.30
2023-03-02T08:47:37.693Z,27.60
2023-03-02T08:48:37.274Z,27.40
2023-03-02T08:49:37.272Z,31.80
2023-03-02T08:50:37.268Z,26.60
2023-03-02T08:51:37.293Z,28.50
2023-03-02T08:52:37.470Z,25.90
2023-03-02T08:53:37.243Z,28.70
2023-03-02T08:54:37.243Z,30.30
2023-03-02T08:55:37.194Z,31.50
2023-03-02T08:56:37.425Z,34.10
2023-03-02T08:57:37.172Z,27.20
2023-03-02T08:58:37.164Z,29.90
2023-03-02T08:59:37.206Z,30.80
2023-03-02T09:00:37.128Z,31.60
2023-03-02T09:01:37.676Z,30.60
2023-03-02T09:02:37.338Z,30.80
2023-03-02T09:03:37.148Z,32.30
2023-03-02T09:04:37.157Z,29.10
2023-03-02T09:05:37.110Z,29.30
2023-03-02T09:06:37.106Z,26.80
2023-03-02T09:07:37.052Z,28.30
2023-03-02T09:08:37.287Z,27.60
2023-03-02T09:09:37.086Z,30.40
2023-03-02T09:10:37.037Z,31.80
2023-03-02T09:11:37.039Z,28.30
2023-03-02T09:12:37.002Z,29.90
2023-03-02T09:13:36.982Z,28.10
2023-03-02T09:14:37.262Z,28.40
2023-03-02T09:15:36.957Z,31.80
2023-03-02T09:16:36.987Z,28.10
2023-03-02T09:17:36.947Z,31.90
2023-03-02T09:18:36.928Z,37.30
2023-03-02T09:19:36.994Z,42.40
2023-03-02T09:20:36.952Z,31.10
2023-03-02T09:21:36.888Z,33.20
2023-03-02T09:22:36.902Z,28.30
2023-03-02T09:23:36.876Z,28.70
2023-03-02T09:24:36.844Z,34.50
2023-03-02T09:25:36.884Z,33.30
2023-03-02T09:26:36.874Z,28.00
2023-03-02T09:27:36.805Z,27.60
2023-03-02T09:28:36.829Z,27.70
2023-03-02T09:29:36.810Z,29.20
2023-03-02T09:30:36.797Z,27.40
2023-03-02T09:31:37.456Z,26.40
2023-03-02T09:32:36.915Z,27.00
2023-03-02T09:33:36.753Z,26.60
2023-03-02T09:34:37.121Z,28.70
2023-03-02T09:35:36.717Z,33.30
2023-03-02T09:36:36.785Z,25.80
2023-03-02T09:37:36.740Z,31.50
2023-03-02T09:38:36.691Z,33.20
2023-03-02T09:39:36.758Z,33.20
2023-03-02T09:40:36.683Z,33.60
2023-03-02T09:41:36.675Z,28.70
2023-03-02T09:42:43.906Z,30.90
2023-03-02T09:43:37.643Z,51.70
2023-03-02T09:44:36.617Z,38.00
2023-03-02T09:45:36.789Z,29.00
2023-03-02T09:46:36.613Z,26.70
2023-03-02T09:47:36.614Z,26.00
2023-03-02T09:48:36.603Z,29.00
2023-03-02T09:49:36.564Z,29.50
2023-03-02T09:50:36.583Z,32.40
2023-03-02T09:51:36.554Z,26.60
2023-03-02T09:52:36.580Z,23.90
2023-03-02T09:53:36.511Z,25.50
2023-03-02T09:54:36.589Z,25.50
2023-03-02T09:55:36.544Z,26.10
2023-03-02T09:56:36.515Z,23.30
2023-03-02T09:57:36.486Z,24.90
2023-03-02T09:58:36.466Z,23.40
2023-03-02T09:59:36.517Z,27.10
2023-03-02T10:00:36.433Z,22.50
2023-03-02T10:01:36.486Z,25.80
2023-03-02T10:02:36.436Z,22.80
2023-03-02T10:03:36.585Z,27.10
2023-03-02T10:04:36.477Z,25.80
2023-03-02T10:05:36.378Z,23.70
2023-03-02T10:06:36.397Z,20.30
2023-03-02T10:07:36.377Z,22.20
2023-03-02T10:08:36.352Z,24.30
2023-03-02T10:09:36.349Z,22.80
2023-03-02T10:10:36.339Z,34.60
2023-03-02T10:11:36.353Z,21.80
2023-03-02T10:12:36.288Z,29.30
2023-03-02T10:13:36.283Z,21.90
2023-03-02T10:14:36.281Z,22.70
2023-03-02T10:15:36.274Z,25.70
2023-03-02T10:16:36.798Z,24.80
2023-03-02T10:17:36.236Z,27.00
2023-03-02T10:18:36.267Z,20.40
2023-03-02T10:19:36.242Z,19.50
2023-03-02T10:20:36.223Z,23.20
2023-03-02T10:21:36.195Z,20.40
2023-03-02T10:22:36.172Z,25.20
2023-03-02T10:23:36.184Z,21.30
2023-03-02T10:24:36.130Z,21.90
2023-03-02T10:25:36.161Z,23.90
2023-03-02T10:26:36.141Z,21.20
2023-03-02T10:27:36.160Z,23.60
2023-03-02T10:28:36.103Z,22.80
2023-03-02T10:29:39.129Z,26.70
2023-03-02T10:30:36.120Z,23.10
2023-03-02T10:31:36.070Z,20.90
2023-03-02T10:32:36.177Z,23.60
2023-03-02T10:33:36.043Z,20.10
2023-03-02T10:34:36.042Z,24.20
2023-03-02T10:35:36.092Z,18.60
2023-03-02T10:36:36.287Z,18.30
2023-03-02T10:37:37.046Z,19.80
2023-03-02T10:38:36.033Z,19.70
2023-03-02T10:39:35.987Z,19.10
2023-03-02T10:40:35.999Z,21.60
2023-03-02T10:41:35.974Z,17.90
2023-03-02T10:42:35.965Z,20.30
2023-03-02T10:43:35.928Z,20.20
2023-03-02T10:44:35.935Z,18.90
2023-03-02T10:45:35.913Z,18.80
2023-03-02T10:46:36.325Z,20.10
2023-03-02T10:47:35.907Z,21.50
2023-03-02T10:48:41.024Z,19.50
2023-03-02T10:49:36.908Z,18.00
2023-03-02T10:50:35.857Z,19.30
2023-03-02T10:51:35.829Z,17.70
2023-03-02T10:52:35.857Z,18.30
2023-03-02T10:53:35.843Z,19.20
2023-03-02T10:54:35.812Z,19.70
2023-03-02T10:55:35.799Z,38.70
2023-03-02T10:56:36.250Z,22.00
2023-03-02T10:57:35.818Z,20.40
2023-03-02T10:58:35.800Z,23.30
2023-03-02T10:59:35.768Z,22.80
2023-03-02T11:00:35.757Z,15.70
2023-03-02T11:01:35.776Z,15.20
2023-03-02T11:02:35.783Z,16.50
2023-03-02T11:03:35.726Z,18.40
2023-03-02T11:04:35.800Z,27.70
2023-03-02T11:05:35.738Z,17.60
2023-03-02T11:06:35.734Z,17.70
2023-03-02T11:07:36.045Z,18.90
2023-03-02T11:08:35.699Z,15.80
2023-03-02T11:09:35.643Z,15.80
2023-03-02T11:10:35.697Z,22.30
2023-03-02T11:11:35.920Z,18.70
2023-03-02T11:12:35.604Z,19.70
2023-03-02T11:13:35.615Z,25.80
2023-03-02T11:14:35.605Z,17.80
2023-03-02T11:15:35.880Z,36.50
2023-03-02T11:16:35.557Z,17.40
2023-03-02T11:17:35.570Z,17.20
2023-03-02T11:18:35.873Z,16.10
2023-03-02T11:19:35.547Z,16.30
2023-03-02T11:20:35.534Z,16.70
2023-03-02T11:21:35.734Z,15.90
2023-03-02T11:22:36.523Z,14.80
2023-03-02T11:23:35.569Z,18.30
2023-03-02T11:24:35.481Z,19.60
2023-03-02T11:25:35.497Z,14.80
2023-03-02T11:26:35.431Z,14.80
2023-03-02T11:27:35.435Z,15.10
2023-03-02T11:28:35.445Z,18.00
2023-03-02T11:29:35.473Z,19.30
2023-03-02T11:30:35.433Z,22.00
2023-03-02T11:31:35.832Z,16.70
2023-03-02T11:32:35.429Z,15.30
2023-03-02T11:33:35.452Z,13.50
2023-03-02T11:34:35.403Z,14.10
2023-03-02T11:35:35.418Z,16.70
2023-03-02T11:36:35.316Z,14.30
2023-03-02T11:37:35.566Z,19.50
2023-03-02T11:38:35.319Z,16.80
2023-03-02T11:39:37.394Z,15.50
2023-03-02T11:40:35.301Z,18.80
2023-03-02T11:41:35.846Z,17.30
2023-03-02T11:42:35.414Z,17.30
2023-03-02T11:43:35.269Z,16.70
2023-03-02T11:44:35.310Z,18.90
2023-03-02T11:45:35.264Z,18.30
2023-03-02T11:46:35.261Z,20.60
2023-03-02T11:47:35.205Z,17.10
2023-03-02T11:48:35.206Z,16.70
2023-03-02T11:49:35.193Z,17.00
2023-03-02T11:50:35.247Z,42.50
2023-03-02T11:51:35.554Z,19.20
2023-03-02T11:52:35.176Z,16.20
2023-03-02T11:53:35.265Z,15.90
2023-03-02T11:54:36.137Z,14.10
2023-03-02T11:55:35.189Z,22.70
2023-03-02T11:56:35.145Z,27.10
2023-03-02T11:57:35.112Z,20.90
2023-03-02T11:58:35.077Z,17.00
2023-03-02T11:59:35.853Z,21.20
2023-03-02T12:00:35.129Z,15.40
2023-03-02T12:01:35.425Z,16.80
2023-03-02T12:02:35.028Z,18.50
2023-03-02T12:03:35.042Z,17.10
2023-03-02T12:04:35.002Z,15.00
2023-03-02T12:05:35.096Z,15.10
2023-03-02T12:06:35.162Z,14.00
2023-03-02T12:07:34.982Z,16.60
2023-03-02T12:08:34.991Z,13.50
2023-03-02T12:09:35.003Z,13.90
2023-03-02T12:10:34.954Z,14.30
2023-03-02T12:11:34.949Z,18.60
2023-03-02T12:12:34.922Z,29.10
2023-03-02T12:13:34.915Z,22.30
2023-03-02T12:14:35.005Z,19.70
2023-03-02T12:15:34.917Z,14.80
2023-03-02T12:16:35.401Z,13.90
2023-03-02T12:17:34.885Z,15.50
2023-03-02T12:18:34.850Z,14.50
2023-03-02T12:19:34.880Z,14.50
2023-03-02T12:20:35.853Z,14.80
2023-03-02T12:21:34.818Z,15.30
2023-03-02T12:22:34.880Z,15.60
2023-03-02T12:23:34.799Z,21.50
2023-03-02T12:24:34.809Z,16.00
2023-03-02T12:25:34.802Z,17.10
2023-03-02T12:26:35.300Z,16.40
2023-03-02T12:27:34.823Z,16.40
2023-03-02T12:28:34.761Z,16.60
2023-03-02T12:29:34.730Z,18.50
2023-03-02T12:30:34.763Z,15.60
2023-03-02T12:31:34.739Z,14.10
2023-03-02T12:32:34.749Z,17.10
2023-03-02T12:33:34.688Z,21.70
2023-03-02T12:34:34.720Z,19.70
2023-03-02T12:35:34.781Z,18.50
2023-03-02T12:36:35.107Z,22.40
2023-03-02T12:37:34.649Z,21.50
2023-03-02T12:38:34.668Z,18.00
2023-03-02T12:39:34.621Z,16.00
2023-03-02T12:40:34.630Z,23.30
2023-03-02T12:41:34.630Z,25.90
2023-03-02T12:42:34.600Z,19.60
2023-03-02T12:43:34.611Z,17.20
2023-03-02T12:44:34.571Z,16.20
2023-03-02T12:45:34.607Z,20.50
2023-03-02T12:46:35.058Z,15.70
2023-03-02T12:47:34.578Z,14.60
2023-03-02T12:48:34.551Z,18.00
2023-03-02T12:49:34.529Z,15.30
2023-03-02T12:50:34.519Z,17.80
2023-03-02T12:51:34.593Z,20.20
2023-03-02T12:52:34.499Z,17.80